VTBSVTSM

Guest
Details From VTBS - Bangkok Suvarnabhumi Intl
To VTSM - Samui
Flight Number -
Tags generated
Created
Modified
Stats Distance 252 nm / 466 km
Max Altitude 32,200 ft / 9,815 m
Waypoints 4
Social Downloads 21
Likes 0
Share VATSIM

Download

Looking for another format? Having issues loading an existing format? Contact us
Advertisement - Login to hide

Notes

Basic altitude profile: - Ascent Rate: 2500ft/min - Ascent Speed: 250kts - Cruise Altitude: 35000ft - Cruise Speed: 420kts - Descent Rate: 1500ft/min - Descent Speed: 250kts

Route

VTBS REGOS W32 SUPOJ VTSM

ID Type Via Altitude Latitude Longitude Leg Dist Tot Dist Heading (true) Name
O VTBS APT - 0 ft / 0 m 13.68046˚ 100.74751˚ - 0 nm - Bangkok Suvarnabhumi Intl
REGOS FIX - 32,200 ft / 9,815 m 12.00181˚ 100.58175˚ 101 nm 101 nm 186° / 185° -
SUPOJ FIX W32 (AWY-HI) 9,500 ft / 2,896 m 10.27837˚ 100.20565˚ 105 nm 207 nm 192° / 192° -
O VTSM APT - 0 ft / 0 m 9.54794˚ 100.06246˚ 44 nm 251 nm 191° / 191° Samui

Altitude Profile

Advertisement - Login to hide

Weather


0- 5 10 15 20 25 30 35+ Temperature / ° C

Clouds and Precipitation
Forecast for 2017-12-16 00:00 UTC. Updated 36 minutes ago

Ground ~20,000 ft ~40,000 ft Winds

VTBS

Details ICAO VTBS (BKK)
Name Bangkok Suvarnabhumi Intl
Region Thailand
Timezone Asia/Bangkok (UTC+7.0)
Stats Elevation 5 ft / 2 m (AMSL)
Location 13.680456° 100.747512°
Runways 2
Magnetic Variation 0.571° W

METAR

VTBS 152130Z 07004KT 9000 FEW030 27/23 Q1012 NOSIG

Decode

TAF

TAF VTBS 151700Z 1518/1624 01005KT 9000 FEW020 BECMG 1601/1603 07010KT 9999 FEW035 BECMG 1611/1613 01005KT BECMG 1616/1618 07010KT

Decode

Departure Runways

ID Width Length Bearing (true) Bearing (mag) Surface Threshold Offset Overrun Length
01L 200 ft / 61 m 12,194 ft / 3,717 m 14.26° 14.83° Asphalt 0 ft / 0 m 400 ft / 122 m
01R 200 ft / 61 m 13,181 ft / 4,018 m 14.19° 14.76° Asphalt 0 ft / 0 m 400 ft / 122 m
19L 200 ft / 61 m 13,181 ft / 4,018 m 194.19° 194.76° Asphalt 0 ft / 0 m 400 ft / 122 m
19R 200 ft / 61 m 12,194 ft / 3,717 m 194.26° 194.83° Asphalt 0 ft / 0 m 400 ft / 122 m

VTSM

Details ICAO VTSM (USM)
Name Samui
Region Thailand
Timezone Asia/Bangkok (UTC+7.0)
Stats Elevation 64 ft / 20 m (AMSL)
Location 9.547939° 100.062457°
Runways 1
Magnetic Variation 0.384° W

METAR

Not found

TAF

TAF VTSM 151700Z 1518/1618 00000KT 9000 FEW020 BECMG 1602/1604 32010KT

Decode

Destination Runways

ID Width Length Bearing (true) Bearing (mag) Surface Threshold Offset Overrun Length
17 148 ft / 45 m 6,795 ft / 2,071 m 174.49° 174.87° Asphalt 853 ft / 260 m 148 ft / 45 m
35 148 ft / 45 m 6,795 ft / 2,071 m 354.49° 354.87° Asphalt 1,109 ft / 338 m 197 ft / 60 m

Popular Alternatives